createdAt,value
2019-05-07T00:01:44.375Z,1.90
2019-05-07T00:04:12.904Z,2.03
2019-05-07T00:06:46.129Z,1.90
2019-05-07T00:09:13.341Z,2.50
2019-05-07T00:11:42.635Z,1.83
2019-05-07T00:14:09.594Z,2.10
2019-05-07T00:16:36.983Z,2.07
2019-05-07T00:19:06.448Z,1.90
2019-05-07T00:21:36.697Z,2.10
2019-05-07T00:24:03.716Z,2.00
2019-05-07T00:26:32.049Z,2.10
2019-05-07T00:28:59.128Z,2.10
2019-05-07T00:31:29.480Z,1.80
2019-05-07T00:33:56.509Z,1.80
2019-05-07T00:36:37.436Z,2.00
2019-05-07T00:39:21.938Z,2.00
2019-05-07T00:41:55.951Z,1.80
2019-05-07T00:44:32.686Z,1.90
2019-05-07T00:46:59.395Z,1.90
2019-05-07T00:49:27.804Z,2.07
2019-05-07T00:51:57.820Z,1.80
2019-05-07T00:54:24.830Z,1.60
2019-05-07T00:56:52.264Z,2.40
2019-05-07T00:59:19.350Z,2.03
2019-05-07T01:02:06.140Z,2.00
2019-05-07T01:04:33.272Z,2.43
2019-05-07T01:07:02.741Z,2.00
2019-05-07T01:09:32.378Z,1.70
2019-05-07T01:12:03.165Z,1.43
2019-05-07T01:14:34.531Z,1.30
2019-05-07T01:17:02.445Z,1.17
2019-05-07T01:19:32.956Z,1.53
2019-05-07T01:22:04.566Z,1.50
2019-05-07T01:24:40.234Z,1.60
2019-05-07T01:27:07.269Z,2.03
2019-05-07T01:29:36.202Z,1.83
2019-05-07T01:32:12.711Z,2.37
2019-05-07T01:34:54.002Z,2.13
2019-05-07T01:37:23.118Z,2.07
2019-05-07T01:39:50.053Z,1.57
2019-05-07T01:42:17.084Z,1.70
2019-05-07T01:44:44.131Z,1.70
2019-05-07T01:47:13.047Z,2.03
2019-05-07T01:49:42.303Z,1.90
2019-05-07T01:52:09.400Z,2.20
2019-05-07T01:54:36.398Z,2.20
2019-05-07T01:57:08.129Z,2.40
2019-05-07T01:59:35.204Z,2.13
2019-05-07T02:02:16.630Z,2.37
2019-05-07T02:04:52.147Z,2.00
2019-05-07T02:07:24.607Z,2.10
2019-05-07T02:10:19.318Z,1.90
2019-05-07T02:12:52.671Z,1.70
2019-05-07T02:15:19.690Z,2.10
2019-05-07T02:17:49.706Z,2.83
2019-05-07T02:20:16.821Z,2.03
2019-05-07T02:22:46.841Z,1.80
2019-05-07T02:25:13.906Z,2.00
2019-05-07T02:27:42.103Z,1.90
2019-05-07T02:30:09.321Z,1.40
2019-05-07T02:32:42.931Z,1.53
2019-05-07T02:35:08.685Z,1.10
2019-05-07T02:37:52.270Z,1.30
2019-05-07T02:40:33.956Z,1.40
2019-05-07T02:43:03.018Z,1.30
2019-05-07T02:45:49.575Z,1.53
2019-05-07T02:48:19.690Z,1.83
2019-05-07T02:50:58.201Z,1.60
2019-05-07T02:53:53.643Z,1.57
2019-05-07T02:56:23.463Z,1.30
2019-05-07T02:58:49.089Z,1.40
2019-05-07T03:01:18.770Z,1.23
2019-05-07T03:03:45.833Z,1.23
2019-05-07T03:06:16.925Z,1.63
2019-05-07T03:08:44.200Z,1.20
2019-05-07T03:11:14.068Z,1.50
2019-05-07T03:13:43.534Z,1.40
2019-05-07T03:16:13.153Z,1.53
2019-05-07T03:18:43.526Z,1.30
2019-05-07T03:21:14.685Z,1.47
2019-05-07T03:23:53.838Z,1.40
2019-05-07T03:26:25.368Z,1.40
2019-05-07T03:28:54.415Z,1.50
2019-05-07T03:31:48.546Z,1.60
2019-05-07T03:34:37.037Z,1.50
2019-05-07T03:37:06.852Z,1.90
2019-05-07T03:39:35.223Z,1.87
2019-05-07T03:42:03.413Z,2.30
2019-05-07T03:44:44.839Z,1.80
2019-05-07T03:47:37.168Z,1.70
2019-05-07T03:50:09.084Z,2.00
2019-05-07T03:52:36.146Z,2.23
2019-05-07T03:55:03.954Z,2.80
2019-05-07T03:57:33.954Z,2.00
2019-05-07T04:00:04.311Z,2.50
2019-05-07T04:02:32.875Z,2.17
2019-05-07T04:04:58.998Z,2.53
2019-05-07T04:07:25.999Z,1.80
2019-05-07T04:09:53.534Z,1.97
2019-05-07T04:12:23.823Z,1.63
2019-05-07T04:14:55.833Z,1.40
2019-05-07T04:17:27.742Z,1.53
2019-05-07T04:19:54.789Z,1.80
2019-05-07T04:22:28.963Z,1.83
2019-05-07T04:25:09.209Z,1.50
2019-05-07T04:27:46.873Z,2.00
2019-05-07T04:30:13.081Z,1.50
2019-05-07T04:33:08.832Z,1.40
2019-05-07T04:35:45.883Z,1.60
2019-05-07T04:38:13.916Z,1.47
2019-05-07T04:40:43.502Z,1.33
2019-05-07T04:43:13.641Z,1.30
2019-05-07T04:45:43.270Z,1.63
2019-05-07T04:48:09.938Z,1.40
2019-05-07T04:50:43.392Z,1.30
2019-05-07T04:53:07.623Z,1.87
2019-05-07T04:55:38.343Z,1.60
2019-05-07T04:58:08.889Z,2.57
2019-05-07T05:00:34.366Z,2.70
2019-05-07T05:03:23.864Z,2.93
2019-05-07T05:05:57.246Z,3.00
2019-05-07T05:08:24.219Z,2.67
2019-05-07T05:10:53.765Z,3.20
2019-05-07T05:13:20.152Z,2.60
2019-05-07T05:15:47.180Z,2.77
2019-05-07T05:18:14.220Z,3.60
2019-05-07T05:21:20.166Z,3.03
2019-05-07T05:23:57.326Z,2.70
2019-05-07T05:26:25.688Z,2.00
2019-05-07T05:28:57.662Z,2.30
2019-05-07T05:31:24.674Z,2.13
2019-05-07T05:33:52.805Z,1.90
2019-05-07T05:36:24.539Z,2.40
2019-05-07T05:38:52.927Z,1.90
2019-05-07T05:41:23.254Z,1.63
2019-05-07T05:44:17.402Z,1.67
2019-05-07T05:46:44.448Z,2.03
2019-05-07T05:49:16.919Z,1.77
2019-05-07T05:52:06.595Z,1.80
2019-05-07T05:54:46.260Z,1.80
2019-05-07T05:57:35.723Z,1.90
2019-05-07T06:00:38.311Z,1.80
2019-05-07T06:03:32.233Z,1.70
2019-05-07T06:06:18.778Z,1.80
2019-05-07T06:09:04.093Z,1.80
2019-05-07T06:11:53.426Z,1.50
2019-05-07T06:14:29.242Z,1.90
2019-05-07T06:17:12.956Z,1.70
2019-05-07T06:20:00.002Z,1.63
2019-05-07T06:22:43.579Z,1.70
2019-05-07T06:25:18.335Z,1.80
2019-05-07T06:27:45.389Z,1.77
2019-05-07T06:30:14.205Z,1.67
2019-05-07T06:32:43.010Z,1.70
2019-05-07T06:35:12.312Z,1.57
2019-05-07T06:37:39.511Z,2.00
2019-05-07T06:40:32.184Z,1.90
2019-05-07T06:43:15.629Z,1.40
2019-05-07T06:45:51.752Z,2.03
2019-05-07T06:48:33.564Z,1.97
2019-05-07T06:50:58.269Z,1.70
2019-05-07T06:53:27.102Z,2.00
2019-05-07T06:55:54.138Z,1.97
2019-05-07T06:58:25.557Z,1.70
2019-05-07T07:01:15.173Z,1.63
2019-05-07T07:04:04.167Z,1.80
2019-05-07T07:06:53.480Z,1.77
2019-05-07T07:09:27.729Z,1.30
2019-05-07T07:11:59.189Z,1.30
2019-05-07T07:14:26.345Z,1.43
2019-05-07T07:16:53.464Z,1.80
2019-05-07T07:19:20.583Z,1.20
2019-05-07T07:21:47.697Z,1.07
2019-05-07T07:24:14.716Z,1.57
2019-05-07T07:26:42.292Z,2.10
2019-05-07T07:29:14.078Z,1.80
2019-05-07T07:31:46.259Z,1.63
2019-05-07T07:34:17.554Z,2.67
2019-05-07T07:37:05.356Z,2.10
2019-05-07T07:39:27.508Z,1.77
2019-05-07T07:41:57.148Z,1.40
2019-05-07T07:44:26.969Z,1.60
2019-05-07T07:46:57.777Z,1.40
2019-05-07T07:49:24.819Z,1.30
2019-05-07T07:51:52.574Z,1.67
2019-05-07T07:54:19.862Z,1.87
2019-05-07T07:57:18.568Z,1.50
2019-05-07T08:00:04.781Z,1.27
2019-05-07T08:03:02.116Z,1.23
2019-05-07T08:05:29.097Z,1.07
2019-05-07T08:07:58.516Z,1.70
2019-05-07T08:10:25.623Z,1.73
2019-05-07T08:12:52.677Z,1.47
2019-05-07T08:15:24.487Z,1.57
2019-05-07T08:17:52.185Z,0.93
2019-05-07T08:20:22.062Z,1.43
2019-05-07T08:22:55.132Z,1.80
2019-05-07T08:25:42.698Z,1.60
2019-05-07T08:28:16.181Z,1.30
2019-05-07T08:30:53.061Z,1.93
2019-05-07T08:33:24.540Z,1.77
2019-05-07T08:36:14.496Z,1.70
2019-05-07T08:38:52.758Z,1.50
2019-05-07T08:41:22.428Z,1.30
2019-05-07T08:43:51.819Z,1.50
2019-05-07T08:46:30.067Z,1.30
2019-05-07T08:49:01.947Z,1.60
2019-05-07T08:51:30.142Z,1.70
2019-05-07T08:54:04.718Z,1.70
2019-05-07T08:56:35.939Z,1.63
2019-05-07T08:59:03.717Z,1.70
2019-05-07T09:01:36.256Z,1.70
2019-05-07T09:04:05.200Z,2.20
2019-05-07T09:06:39.791Z,1.70
2019-05-07T09:09:18.071Z,1.93
2019-05-07T09:11:45.156Z,1.80
2019-05-07T09:14:16.158Z,1.50
2019-05-07T09:16:43.175Z,1.50
2019-05-07T09:19:12.609Z,2.20
2019-05-07T09:21:39.227Z,1.80
2019-05-07T09:24:11.941Z,1.73
2019-05-07T09:26:52.379Z,2.27
2019-05-07T09:29:32.401Z,1.87
2019-05-07T09:32:17.607Z,2.07
2019-05-07T09:34:46.046Z,2.00
2019-05-07T09:37:22.637Z,1.83
2019-05-07T09:39:52.015Z,2.00
2019-05-07T09:42:22.613Z,2.03
2019-05-07T09:44:53.056Z,2.43
2019-05-07T09:47:21.891Z,2.33
2019-05-07T09:50:03.879Z,2.13
2019-05-07T09:52:22.863Z,2.17
2019-05-07T09:54:52.015Z,2.07
2019-05-07T09:57:30.385Z,2.70
2019-05-07T09:59:55.199Z,2.47
2019-05-07T10:02:22.815Z,2.60
2019-05-07T10:04:49.840Z,2.30
2019-05-07T10:07:22.339Z,1.97
2019-05-07T10:09:52.316Z,2.20
2019-05-07T10:12:42.209Z,1.90
2019-05-07T10:15:09.649Z,1.93
2019-05-07T10:17:45.199Z,2.77
2019-05-07T10:20:21.847Z,2.37
2019-05-07T10:22:44.693Z,1.93
2019-05-07T10:25:12.281Z,2.20
2019-05-07T10:27:41.672Z,1.70
2019-05-07T10:30:10.011Z,2.03
2019-05-07T10:32:43.265Z,1.90
2019-05-07T10:35:12.718Z,2.23
2019-05-07T10:37:42.084Z,2.53
2019-05-07T10:40:12.273Z,2.07
2019-05-07T10:42:39.448Z,2.53
2019-05-07T10:45:26.380Z,2.30
2019-05-07T10:48:11.703Z,1.90
2019-05-07T10:50:42.407Z,2.10
2019-05-07T10:53:09.243Z,1.87
2019-05-07T10:55:36.685Z,2.37
2019-05-07T10:58:06.574Z,1.80
2019-05-07T11:00:35.257Z,1.90
2019-05-07T11:03:02.546Z,1.57
2019-05-07T11:05:32.783Z,2.30
2019-05-07T11:08:05.203Z,2.30
2019-05-07T11:10:32.788Z,1.77
2019-05-07T11:13:02.109Z,1.83
2019-05-07T11:15:34.294Z,1.60
2019-05-07T11:18:26.443Z,1.80
2019-05-07T11:20:53.653Z,2.57
2019-05-07T11:23:23.247Z,2.30
2019-05-07T11:25:54.035Z,2.20
2019-05-07T11:28:22.718Z,2.00
2019-05-07T11:30:49.829Z,1.90
2019-05-07T11:33:21.858Z,1.97
2019-05-07T11:35:48.518Z,1.80
2019-05-07T11:38:22.272Z,1.80
2019-05-07T11:40:51.785Z,1.30
2019-05-07T11:43:43.849Z,1.67
2019-05-07T11:46:22.085Z,1.87
2019-05-07T11:49:00.217Z,1.73
2019-05-07T11:51:55.800Z,1.30
2019-05-07T11:54:31.863Z,1.40
2019-05-07T11:57:04.194Z,1.40
2019-05-07T11:59:32.629Z,1.77
2019-05-07T12:02:05.448Z,2.07
2019-05-07T12:04:32.454Z,1.90
2019-05-07T12:07:06.438Z,2.50
2019-05-07T12:09:33.515Z,2.00
2019-05-07T12:12:02.385Z,2.30
2019-05-07T12:14:34.953Z,2.30
2019-05-07T12:17:03.908Z,1.63
2019-05-07T12:19:32.978Z,1.90
2019-05-07T12:22:03.247Z,1.63
2019-05-07T12:24:32.673Z,1.40
2019-05-07T12:26:59.258Z,1.80
2019-05-07T12:29:26.811Z,1.60
2019-05-07T12:32:19.317Z,1.37
2019-05-07T12:34:52.654Z,2.30
2019-05-07T12:37:22.896Z,1.90
2019-05-07T12:39:52.653Z,2.20
2019-05-07T12:42:29.786Z,2.77
2019-05-07T12:45:05.308Z,2.33
2019-05-07T12:47:32.376Z,2.00
2019-05-07T12:50:03.014Z,1.70
2019-05-07T12:52:49.721Z,1.83
2019-05-07T12:55:24.344Z,2.43
2019-05-07T12:58:06.253Z,2.60
2019-05-07T13:00:54.457Z,4.60
2019-05-07T13:03:46.782Z,2.80
2019-05-07T13:06:13.823Z,3.03
2019-05-07T13:08:41.974Z,2.70
2019-05-07T13:11:09.106Z,3.27
2019-05-07T13:13:36.139Z,3.20
2019-05-07T13:16:04.685Z,2.30
2019-05-07T13:18:31.724Z,1.93
2019-05-07T13:21:02.450Z,2.10
2019-05-07T13:23:31.611Z,2.33
2019-05-07T13:26:02.562Z,2.67
2019-05-07T13:28:29.872Z,2.80
2019-05-07T13:30:58.217Z,3.33
2019-05-07T13:33:26.601Z,3.13
2019-05-07T13:35:57.054Z,1.80
2019-05-07T13:38:59.517Z,1.80
2019-05-07T13:41:48.817Z,1.87
2019-05-07T13:44:42.653Z,2.33
2019-05-07T13:47:27.553Z,2.60
2019-05-07T13:50:02.461Z,2.97
2019-05-07T13:52:33.271Z,2.83
2019-05-07T13:55:02.035Z,2.70
2019-05-07T13:57:32.242Z,2.30
2019-05-07T14:00:18.960Z,2.90
2019-05-07T14:02:45.998Z,2.30
2019-05-07T14:05:17.984Z,2.50
2019-05-07T14:07:50.251Z,2.27
2019-05-07T14:10:19.622Z,2.13
2019-05-07T14:12:46.738Z,2.30
2019-05-07T14:15:16.366Z,2.10
2019-05-07T14:17:46.498Z,1.93
2019-05-07T14:20:16.034Z,2.47
2019-05-07T14:22:43.106Z,2.03
2019-05-07T14:25:12.098Z,2.10
2019-05-07T14:27:40.326Z,1.87
2019-05-07T14:30:12.921Z,1.80
2019-05-07T14:32:52.607Z,3.00
2019-05-07T14:35:49.601Z,3.80
2019-05-07T14:38:25.196Z,4.30
2019-05-07T14:40:52.826Z,4.57
2019-05-07T14:43:41.888Z,3.90
2019-05-07T14:46:09.038Z,4.67
2019-05-07T14:48:49.617Z,5.10
2019-05-07T14:51:16.590Z,4.53
2019-05-07T14:53:46.884Z,5.63
2019-05-07T14:56:16.684Z,5.33
2019-05-07T14:58:48.379Z,5.73
2019-05-07T15:01:15.394Z,4.80
2019-05-07T15:03:42.526Z,3.63
2019-05-07T15:06:16.155Z,5.30
2019-05-07T15:08:46.212Z,4.50
2019-05-07T15:11:20.488Z,5.00
2019-05-07T15:13:52.196Z,4.03
2019-05-07T15:16:22.520Z,5.10
2019-05-07T15:18:54.895Z,4.57
2019-05-07T16:35:55.961Z,5.60
2019-05-07T16:38:22.913Z,5.53
2019-05-07T16:40:52.016Z,5.40
2019-05-07T16:43:18.757Z,5.40
2019-05-07T16:45:45.697Z,6.87
2019-05-07T16:48:12.712Z,6.20
2019-05-07T16:50:39.682Z,6.73
2019-05-07T16:53:06.645Z,6.50
2019-05-07T16:55:36.609Z,5.33
2019-05-07T16:58:23.432Z,6.73
2019-05-07T17:00:53.813Z,6.30
2019-05-07T17:03:24.772Z,7.30
2019-05-07T17:05:52.377Z,6.40
2019-05-07T17:08:23.638Z,5.93
2019-05-07T17:10:52.387Z,7.00
2019-05-07T17:13:19.511Z,6.60
2019-05-07T17:15:59.578Z,6.10
2019-05-07T17:18:27.382Z,6.10
2019-05-07T17:20:55.126Z,4.90
2019-05-07T17:23:22.659Z,5.80
2019-05-07T17:25:52.750Z,4.80
2019-05-07T17:28:19.709Z,4.80
2019-05-07T17:30:46.674Z,5.83
2019-05-07T17:33:15.901Z,5.83
2019-05-07T17:35:42.866Z,5.43
2019-05-07T17:38:12.263Z,4.97
2019-05-07T17:40:38.660Z,5.23
2019-05-07T17:43:05.675Z,5.50
2019-05-07T17:45:33.022Z,5.30
2019-05-07T17:48:00.210Z,5.20
2019-05-07T17:50:33.737Z,5.30
2019-05-07T17:53:00.689Z,5.63
2019-05-07T17:55:27.645Z,6.20
2019-05-07T17:57:54.632Z,6.40
2019-05-07T18:00:22.119Z,5.97
2019-05-07T18:03:07.541Z,6.40
2019-05-07T18:05:34.478Z,5.63
2019-05-07T18:08:02.068Z,6.50
2019-05-07T18:10:29.285Z,6.27
2019-05-07T18:12:56.250Z,6.53
2019-05-07T18:15:24.415Z,6.83
2019-05-07T18:18:00.953Z,6.50
2019-05-07T18:20:29.154Z,6.17
2019-05-07T18:22:56.135Z,4.90
2019-05-07T18:25:23.111Z,6.07
2019-05-07T18:27:50.062Z,6.40
2019-05-07T18:30:17.011Z,6.43
2019-05-07T18:32:56.433Z,6.87
2019-05-07T18:35:23.472Z,6.27
2019-05-07T18:37:52.516Z,7.17
2019-05-07T18:40:20.361Z,7.67
2019-05-07T18:42:47.428Z,7.20
2019-05-07T18:45:14.383Z,6.67
2019-05-07T18:47:43.386Z,6.23
2019-05-07T18:50:12.684Z,6.97
2019-05-07T18:52:39.373Z,6.63
2019-05-07T18:55:06.526Z,7.00
2019-05-07T18:57:33.550Z,6.83
2019-05-07T19:00:03.187Z,6.07
2019-05-07T19:02:29.381Z,6.20
2019-05-07T19:04:56.376Z,7.93
2019-05-07T19:07:23.338Z,7.50
2019-05-07T19:09:51.683Z,6.20
2019-05-07T19:12:22.320Z,6.50
2019-05-07T19:14:51.624Z,6.10
2019-05-07T19:17:18.482Z,6.20
2019-05-07T19:19:48.405Z,6.80
2019-05-07T19:22:15.372Z,7.17
2019-05-07T19:24:47.806Z,5.90
2019-05-07T19:27:12.656Z,6.77
2019-05-07T19:29:43.400Z,8.10
2019-05-07T19:32:12.117Z,6.73
2019-05-07T19:34:39.227Z,7.23
2019-05-07T19:37:06.244Z,6.63
2019-05-07T19:39:33.205Z,7.27
2019-05-07T19:42:02.755Z,7.43
2019-05-07T19:44:29.844Z,7.00
2019-05-07T19:46:56.781Z,7.40
2019-05-07T19:49:23.768Z,7.27
2019-05-07T19:51:52.385Z,9.17
2019-05-07T19:54:19.620Z,12.27
2019-05-07T19:56:46.613Z,12.13
2019-05-07T19:59:13.668Z,12.77
2019-05-07T20:01:45.302Z,11.30
2019-05-07T20:04:13.269Z,11.47
2019-05-07T20:06:40.328Z,13.03
2019-05-07T20:09:12.459Z,11.10
2019-05-07T20:11:48.619Z,11.73
2019-05-07T20:14:15.583Z,12.80
2019-05-07T20:16:42.566Z,13.30
2019-05-07T20:19:11.869Z,10.00
2019-05-07T20:21:38.442Z,8.47
2019-05-07T20:24:05.396Z,8.40
2019-05-07T20:26:32.922Z,6.97
2019-05-07T20:29:03.057Z,6.10
2019-05-07T20:31:30.221Z,7.03
2019-05-07T20:33:57.207Z,7.90
2019-05-07T20:36:24.214Z,8.43
2019-05-07T20:38:52.325Z,9.57
2019-05-07T20:41:19.279Z,9.53
2019-05-07T20:43:46.234Z,9.20
2019-05-07T20:46:13.210Z,9.43
2019-05-07T20:48:42.359Z,9.50
2019-05-07T20:51:09.160Z,8.53
2019-05-07T20:53:53.239Z,8.00
2019-05-07T20:56:24.264Z,8.53
2019-05-07T20:58:52.060Z,6.93
2019-05-07T21:01:21.977Z,8.10
2019-05-07T21:03:49.272Z,7.73
2019-05-07T21:06:16.220Z,7.50
2019-05-07T21:08:43.270Z,8.43
2019-05-07T21:11:11.913Z,8.17
2019-05-07T21:13:42.070Z,8.57
2019-05-07T21:16:12.634Z,8.70
2019-05-07T21:18:39.474Z,8.57
2019-05-07T21:21:06.444Z,9.03
2019-05-07T21:23:36.452Z,9.53
2019-05-07T21:26:03.432Z,9.83
2019-05-07T21:28:32.328Z,8.70
2019-05-07T21:30:59.271Z,8.50
2019-05-07T21:33:26.239Z,9.63
2019-05-07T21:35:53.248Z,8.93
2019-05-07T21:38:22.402Z,7.67
2019-05-07T21:40:49.106Z,8.50
2019-05-07T21:43:16.071Z,8.83
2019-05-07T21:45:43.050Z,8.87
2019-05-07T21:48:10.068Z,9.23
2019-05-07T21:50:37.016Z,9.33
2019-05-07T21:53:09.326Z,9.67
2019-05-07T21:55:44.260Z,9.63
2019-05-07T21:58:28.828Z,8.90
2019-05-07T22:01:12.484Z,9.40
2019-05-07T22:03:39.951Z,9.40
2019-05-07T22:06:09.706Z,9.47
2019-05-07T22:08:35.943Z,9.67
2019-05-07T22:11:04.695Z,9.07
2019-05-07T22:13:32.952Z,9.00
2019-05-07T22:16:02.480Z,8.43
2019-05-07T22:18:32.028Z,8.07
2019-05-07T22:20:58.732Z,8.50
2019-05-07T22:23:28.813Z,8.30
2019-05-07T22:25:58.944Z,8.43
2019-05-07T22:28:28.981Z,8.13
2019-05-07T22:31:18.760Z,9.50
2019-05-07T22:34:12.858Z,9.83
2019-05-07T22:36:39.989Z,9.70
2019-05-07T22:39:06.996Z,10.20
2019-05-07T22:41:33.972Z,9.80
2019-05-07T22:44:02.546Z,9.67
2019-05-07T22:46:29.646Z,9.43
2019-05-07T22:48:56.620Z,9.53
2019-05-07T22:51:23.608Z,10.27
2019-05-07T22:53:50.561Z,11.23
2019-05-07T22:56:30.989Z,11.53
2019-05-07T22:58:49.812Z,11.07
2019-05-07T23:01:16.832Z,11.10
2019-05-07T23:03:43.799Z,10.70
2019-05-07T23:06:13.109Z,10.30
2019-05-07T23:08:42.262Z,11.67
2019-05-07T23:11:08.920Z,13.17
2019-05-07T23:13:38.241Z,12.70
2019-05-07T23:16:05.652Z,12.13
2019-05-07T23:18:32.602Z,11.13
2019-05-07T23:20:59.594Z,11.77
2019-05-07T23:23:26.549Z,11.70
2019-05-07T23:25:53.508Z,12.30
2019-05-07T23:28:22.805Z,13.67
2019-05-07T23:30:51.701Z,12.60
2019-05-07T23:33:18.267Z,13.37
2019-05-07T23:35:45.274Z,12.90
2019-05-07T23:38:15.491Z,12.70
2019-05-07T23:40:52.571Z,13.80
2019-05-07T23:43:19.858Z,13.17
2019-05-07T23:45:46.821Z,13.33
2019-05-07T23:48:13.775Z,13.77
2019-05-07T23:50:41.869Z,12.03
2019-05-07T23:53:08.946Z,12.70
2019-05-07T23:55:35.894Z,12.73
2019-05-07T23:58:03.203Z,12.57
